createdAt,value
2022-09-10T00:00:25.215Z,11.00
2022-09-10T00:02:53.951Z,11.06
2022-09-10T00:05:22.717Z,11.06
2022-09-10T00:07:53.767Z,11.08
2022-09-10T00:10:22.422Z,10.97
2022-09-10T00:12:51.381Z,11.06
2022-09-10T00:15:20.372Z,11.01
2022-09-10T00:17:51.111Z,10.85
2022-09-10T00:20:19.638Z,10.72
2022-09-10T00:22:48.579Z,10.61
2022-09-10T00:25:18.303Z,10.54
2022-09-10T00:27:46.695Z,10.48
2022-09-10T00:30:18.411Z,10.50
2022-09-10T00:32:52.720Z,10.42
2022-09-10T00:35:21.444Z,10.48
2022-09-10T00:37:50.158Z,10.52
2022-09-10T00:40:20.286Z,10.46
2022-09-10T00:42:48.912Z,10.41
2022-09-10T00:45:22.697Z,10.43
2022-09-10T00:47:54.750Z,10.52
2022-09-10T00:50:28.899Z,10.49
2022-09-10T00:53:02.089Z,10.41
2022-09-10T00:55:32.872Z,10.40
2022-09-10T00:58:04.038Z,10.38
2022-09-10T01:00:32.401Z,10.61
2022-09-10T01:05:24.175Z,10.54
2022-09-10T01:07:53.588Z,10.44
2022-09-10T01:10:28.134Z,10.33
2022-09-10T01:13:24.163Z,10.21
2022-09-10T01:16:08.923Z,10.15
2022-09-10T01:18:55.512Z,10.14
2022-09-10T01:21:33.788Z,10.18
2022-09-10T01:24:52.875Z,10.15
2022-09-10T01:27:45.540Z,10.26
2022-09-10T01:30:19.442Z,10.36
2022-09-10T01:33:12.699Z,10.26
2022-09-10T01:35:51.338Z,10.14
2022-09-10T01:38:32.021Z,10.06
2022-09-10T01:41:01.751Z,10.11
2022-09-10T01:43:33.930Z,10.08
2022-09-10T01:46:28.168Z,10.04
2022-09-10T01:49:22.272Z,9.96
2022-09-10T01:52:12.564Z,9.86
2022-09-10T01:54:59.898Z,9.89
2022-09-10T01:57:43.446Z,9.84
2022-09-10T02:00:18.252Z,9.81
2022-09-10T02:02:54.937Z,9.95
2022-09-10T02:05:26.557Z,9.93
2022-09-10T02:08:02.579Z,10.15
2022-09-10T02:10:32.140Z,10.24
2022-09-10T02:13:04.397Z,10.13
2022-09-10T02:15:39.510Z,10.08
2022-09-10T02:18:08.454Z,10.16
2022-09-10T02:20:39.085Z,10.23
2022-09-10T02:23:12.498Z,10.33
2022-09-10T02:25:42.152Z,10.24
2022-09-10T02:28:12.260Z,10.20
2022-09-10T02:30:45.656Z,10.14
2022-09-10T02:33:16.401Z,10.09
2022-09-10T02:35:47.683Z,10.27
2022-09-10T02:38:17.326Z,10.41
2022-09-10T02:40:49.261Z,10.40
2022-09-10T02:43:19.322Z,10.34
2022-09-10T02:45:49.977Z,10.28
2022-09-10T02:48:19.425Z,10.25
2022-09-10T02:50:48.593Z,10.25
2022-09-10T02:53:17.207Z,10.25
2022-09-10T02:55:46.765Z,10.25
2022-09-10T02:58:16.924Z,10.26
2022-09-10T03:00:48.195Z,10.39
2022-09-10T03:05:18.344Z,10.65
2022-09-10T03:07:47.589Z,10.68
2022-09-10T03:10:16.949Z,10.66
2022-09-10T03:12:45.835Z,10.61
2022-09-10T03:15:15.855Z,10.54
2022-09-10T03:17:44.545Z,10.58
2022-09-10T03:20:18.512Z,10.64
2022-09-10T03:22:47.937Z,10.64
2022-09-10T03:25:17.344Z,10.71
2022-09-10T03:27:46.368Z,10.90
2022-09-10T03:30:18.771Z,10.93
2022-09-10T03:32:48.553Z,10.97
2022-09-10T03:35:19.270Z,10.94
2022-09-10T03:37:48.409Z,10.95
2022-09-10T03:40:17.996Z,11.02
2022-09-10T03:42:48.626Z,11.01
2022-09-10T03:45:21.671Z,10.99
2022-09-10T03:47:52.320Z,11.04
2022-09-10T03:50:24.358Z,11.06
2022-09-10T03:55:47.312Z,11.06
2022-09-10T03:58:18.599Z,11.03
2022-09-10T04:00:47.456Z,11.04
2022-09-10T04:03:15.993Z,11.01
2022-09-10T04:05:46.044Z,11.10
2022-09-10T04:08:16.355Z,11.09
2022-09-10T04:10:45.520Z,11.15
2022-09-10T04:13:15.659Z,11.19
2022-09-10T04:15:47.057Z,11.15
2022-09-10T04:18:16.587Z,11.10
2022-09-10T04:20:49.585Z,11.06
2022-09-10T04:23:18.755Z,11.01
2022-09-10T04:25:50.946Z,10.97
2022-09-10T04:28:24.415Z,10.94
2022-09-10T04:30:53.144Z,10.92
2022-09-10T04:33:22.144Z,10.90
2022-09-10T04:35:55.141Z,10.86
2022-09-10T04:38:26.737Z,10.80
2022-09-10T04:40:55.327Z,10.75
2022-09-10T04:43:27.580Z,10.65
2022-09-10T04:45:57.438Z,10.65
2022-09-10T04:48:26.908Z,10.64
2022-09-10T04:51:15.377Z,10.83
2022-09-10T04:53:45.274Z,10.81
2022-09-10T04:56:14.830Z,10.78
2022-09-10T04:58:45.289Z,10.76
2022-09-10T05:01:14.741Z,10.76
2022-09-10T05:05:18.399Z,10.79
2022-09-10T05:07:47.075Z,10.82
2022-09-10T05:10:16.642Z,10.91
2022-09-10T05:12:45.535Z,10.99
2022-09-10T05:15:14.219Z,11.06
2022-09-10T05:17:43.828Z,11.15
2022-09-10T05:20:13.312Z,11.24
2022-09-10T05:22:46.816Z,11.31
2022-09-10T05:25:16.053Z,11.26
2022-09-10T05:27:44.731Z,11.29
2022-09-10T05:30:13.926Z,11.45
2022-09-10T05:32:42.808Z,11.59
2022-09-10T05:35:12.965Z,11.67
2022-09-10T05:37:41.676Z,11.78
2022-09-10T05:40:16.457Z,11.82
2022-09-10T05:42:45.239Z,11.87
2022-09-10T05:45:14.265Z,11.91
2022-09-10T05:47:43.991Z,11.90
2022-09-10T05:50:12.481Z,11.85
2022-09-10T05:52:41.116Z,11.91
2022-09-10T05:55:11.514Z,12.01
2022-09-10T05:57:41.973Z,12.08
2022-09-10T06:00:11.938Z,12.13
2022-09-10T06:02:42.302Z,12.19
2022-09-10T06:05:11.230Z,12.29
2022-09-10T06:07:40.083Z,12.38
2022-09-10T06:10:09.498Z,12.44
2022-09-10T06:12:40.466Z,12.57
2022-09-10T06:15:12.792Z,12.71
2022-09-10T06:17:41.281Z,12.92
2022-09-10T06:20:14.781Z,13.11
2022-09-10T06:22:43.503Z,13.31
2022-09-10T06:25:12.122Z,13.54
2022-09-10T06:27:42.073Z,13.91
2022-09-10T06:30:11.426Z,14.28
2022-09-10T06:32:40.572Z,14.54
2022-09-10T06:35:10.891Z,14.47
2022-09-10T06:37:39.981Z,14.62
2022-09-10T06:40:09.796Z,14.89
2022-09-10T06:42:39.202Z,15.22
2022-09-10T06:45:10.430Z,15.55
2022-09-10T06:48:25.388Z,16.06
2022-09-10T06:50:27.669Z,16.92
2022-09-10T06:52:57.408Z,18.44
2022-09-10T06:55:25.696Z,18.81
2022-09-10T06:57:54.312Z,18.76
2022-09-10T07:00:26.676Z,19.43
2022-09-10T07:05:18.076Z,18.94
2022-09-10T07:07:46.999Z,18.71
2022-09-10T07:10:15.619Z,19.19
2022-09-10T07:12:57.852Z,18.93
2022-09-10T07:15:39.115Z,19.86
2022-09-10T07:18:19.101Z,20.74
2022-09-10T07:20:51.719Z,21.12
2022-09-10T07:23:22.264Z,21.65
2022-09-10T07:25:53.305Z,22.59
2022-09-10T07:28:22.171Z,22.00
2022-09-10T07:30:51.512Z,21.13
2022-09-10T07:33:20.237Z,20.72
2022-09-10T07:35:53.625Z,20.44
2022-09-10T07:38:22.228Z,20.22
2022-09-10T07:40:52.538Z,20.41
2022-09-10T07:43:25.185Z,20.90
2022-09-10T07:45:54.250Z,21.51
2022-09-10T07:48:24.289Z,21.44
2022-09-10T07:50:54.466Z,20.70
2022-09-10T07:53:24.007Z,21.11
2022-09-10T07:56:03.518Z,21.47
2022-09-10T07:58:34.182Z,22.48
2022-09-10T08:01:03.696Z,23.29
2022-09-10T08:03:33.037Z,24.09
2022-09-10T08:06:06.243Z,25.09
2022-09-10T08:08:37.517Z,26.41
2022-09-10T08:11:11.757Z,27.24
2022-09-10T08:13:41.639Z,27.06
2022-09-10T08:16:12.714Z,27.70
2022-09-10T08:18:41.281Z,27.46
2022-09-10T08:21:12.432Z,26.74
2022-09-10T08:23:41.853Z,26.58
2022-09-10T08:26:11.245Z,26.61
2022-09-10T08:28:40.438Z,26.57
2022-09-10T08:31:11.858Z,26.48
2022-09-10T08:33:41.789Z,26.91
2022-09-10T08:36:14.817Z,26.94
2022-09-10T08:38:44.192Z,27.05
2022-09-10T08:41:24.319Z,27.04
2022-09-10T08:43:57.449Z,26.66
2022-09-10T08:46:31.991Z,27.50
2022-09-10T08:49:12.583Z,27.45
2022-09-10T08:51:45.692Z,27.68
2022-09-10T08:54:18.739Z,28.58
2022-09-10T08:56:50.497Z,29.20
2022-09-10T08:59:26.895Z,29.18
2022-09-10T09:05:22.230Z,29.11
2022-09-10T09:07:52.535Z,28.64
2022-09-10T09:10:31.560Z,28.42
2022-09-10T09:13:23.352Z,28.81
2022-09-10T09:15:59.061Z,28.24
2022-09-10T09:18:38.727Z,28.19
2022-09-10T09:21:14.599Z,27.92
2022-09-10T09:24:13.464Z,28.15
2022-09-10T09:26:46.832Z,28.03
2022-09-10T09:29:20.507Z,27.83
2022-09-10T09:31:53.124Z,26.47
2022-09-10T09:34:29.366Z,25.72
2022-09-10T09:37:04.261Z,25.59
2022-09-10T09:39:43.795Z,25.78
2022-09-10T09:42:21.003Z,24.69
2022-09-10T09:44:57.258Z,24.71
2022-09-10T09:47:29.510Z,25.15
2022-09-10T09:49:57.948Z,25.05
2022-09-10T09:52:33.455Z,25.02
2022-09-10T09:55:15.575Z,25.18
2022-09-10T09:57:45.140Z,25.55
2022-09-10T10:00:37.914Z,26.06
2022-09-10T10:03:14.397Z,25.63
2022-09-10T10:05:50.002Z,25.91
2022-09-10T10:08:31.296Z,25.96
2022-09-10T10:11:00.223Z,25.76
2022-09-10T10:13:39.137Z,25.65
2022-09-10T10:16:19.570Z,26.05
2022-09-10T10:18:52.394Z,26.31
2022-09-10T10:21:22.596Z,26.56
2022-09-10T10:23:52.485Z,27.20
2022-09-10T10:26:34.168Z,27.57
2022-09-10T10:29:07.008Z,27.55
2022-09-10T10:31:43.874Z,27.18
2022-09-10T10:34:39.016Z,26.88
2022-09-10T10:37:14.873Z,26.63
2022-09-10T10:40:03.432Z,26.22
2022-09-10T10:42:39.657Z,25.95
2022-09-10T10:45:40.512Z,25.93
2022-09-10T10:48:13.936Z,25.62
2022-09-10T10:50:55.104Z,25.57
2022-09-10T10:53:39.132Z,25.32
2022-09-10T10:56:16.176Z,24.96
2022-09-10T10:59:01.270Z,25.01
2022-09-10T11:01:34.230Z,24.81
2022-09-10T11:05:26.958Z,25.43
2022-09-10T11:08:00.623Z,25.29
2022-09-10T11:10:34.617Z,24.97
2022-09-10T11:13:10.413Z,25.22
2022-09-10T11:15:49.001Z,25.62
2022-09-10T11:18:27.550Z,25.70
2022-09-10T11:21:03.960Z,25.63
2022-09-10T11:23:40.690Z,25.53
2022-09-10T11:26:14.603Z,25.15
2022-09-10T11:28:52.576Z,25.63
2022-09-10T11:31:34.010Z,25.73
2022-09-10T11:34:07.027Z,25.43
2022-09-10T11:36:54.317Z,25.44
2022-09-10T11:39:34.066Z,25.16
2022-09-10T11:42:10.414Z,24.79
2022-09-10T11:44:50.296Z,24.72
2022-09-10T11:47:24.225Z,24.07
2022-09-10T11:50:01.571Z,23.23
2022-09-10T11:52:34.414Z,23.20
2022-09-10T11:55:04.941Z,23.69
2022-09-10T11:57:41.386Z,24.28
2022-09-10T12:00:17.661Z,24.43
2022-09-10T12:03:23.897Z,24.83
2022-09-10T12:06:09.333Z,25.16
2022-09-10T12:08:55.568Z,25.67
2022-09-10T12:11:30.063Z,25.20
2022-09-10T12:14:01.356Z,24.37
2022-09-10T12:16:41.554Z,24.53
2022-09-10T12:19:22.545Z,25.03
2022-09-10T12:21:53.571Z,25.51
2022-09-10T12:24:32.994Z,25.65
2022-09-10T12:27:02.714Z,25.03
2022-09-10T12:29:37.592Z,24.29
2022-09-10T12:32:38.214Z,23.74
2022-09-10T12:35:44.921Z,22.99
2022-09-10T12:38:59.221Z,22.61
2022-09-10T12:41:59.417Z,22.05
2022-09-10T12:44:43.959Z,21.71
2022-09-10T12:47:50.589Z,21.36
2022-09-10T12:50:46.802Z,21.07
2022-09-10T12:54:07.339Z,20.95
2022-09-10T12:57:08.372Z,20.54
2022-09-10T13:00:12.247Z,20.00
2022-09-10T13:05:26.410Z,19.19
2022-09-10T13:08:12.193Z,19.19
2022-09-10T13:10:42.383Z,19.01
2022-09-10T13:13:35.854Z,18.41
2022-09-10T13:16:07.324Z,18.10
2022-09-10T13:18:43.029Z,18.06
2022-09-10T13:21:52.933Z,18.03
2022-09-10T13:25:00.661Z,18.18
2022-09-10T13:27:41.858Z,18.25
2022-09-10T13:30:18.170Z,18.29
2022-09-10T13:32:52.830Z,18.24
2022-09-10T13:35:47.709Z,18.33
2022-09-10T13:38:52.701Z,18.32
2022-09-10T13:41:56.593Z,18.34
2022-09-10T13:44:45.861Z,18.45
2022-09-10T13:47:20.709Z,18.62
2022-09-10T13:49:55.596Z,18.72
2022-09-10T13:52:29.446Z,18.80
2022-09-10T13:54:59.676Z,18.80
2022-09-10T13:57:32.316Z,19.01
2022-09-10T14:00:08.248Z,18.94
2022-09-10T14:02:48.405Z,19.08
2022-09-10T14:05:27.174Z,19.13
2022-09-10T14:07:58.326Z,19.02
2022-09-10T14:10:27.221Z,19.13
2022-09-10T14:12:57.447Z,19.16
2022-09-10T14:15:39.330Z,19.02
2022-09-10T14:18:11.202Z,19.00
2022-09-10T14:20:42.823Z,19.02
2022-09-10T14:23:19.297Z,19.15
2022-09-10T14:25:48.912Z,19.35
2022-09-10T14:28:29.929Z,19.77
2022-09-10T14:31:25.051Z,20.20
2022-09-10T14:33:55.098Z,20.71
2022-09-10T14:36:35.268Z,21.39
2022-09-10T14:39:07.586Z,21.86
2022-09-10T14:41:37.855Z,22.71
2022-09-10T14:44:17.897Z,23.43
2022-09-10T14:46:53.279Z,24.15
2022-09-10T14:49:27.968Z,24.27
2022-09-10T14:51:58.520Z,24.79
2022-09-10T14:54:27.216Z,24.00
2022-09-10T14:56:58.239Z,23.11
2022-09-10T14:59:31.855Z,22.21
2022-09-10T15:05:19.432Z,21.38
2022-09-10T15:07:49.023Z,20.72
2022-09-10T15:10:18.489Z,20.89
2022-09-10T15:12:56.335Z,20.90
2022-09-10T15:15:27.227Z,21.04
2022-09-10T15:17:59.048Z,21.47
2022-09-10T15:20:29.122Z,21.57
2022-09-10T15:22:58.219Z,21.55
2022-09-10T15:25:37.977Z,21.22
2022-09-10T15:28:06.970Z,21.55
2022-09-10T15:30:36.214Z,21.20
2022-09-10T15:33:05.721Z,21.65
2022-09-10T15:35:36.961Z,21.38
2022-09-10T15:38:05.169Z,20.72
2022-09-10T15:40:34.020Z,20.72
2022-09-10T15:43:02.780Z,20.61
2022-09-10T15:45:33.535Z,20.35
2022-09-10T15:48:02.531Z,20.41
2022-09-10T15:50:32.410Z,20.36
2022-09-10T15:53:02.011Z,20.66
2022-09-10T15:55:31.772Z,20.95
2022-09-10T15:58:01.669Z,21.28
2022-09-10T16:00:34.291Z,21.17
2022-09-10T16:03:03.250Z,20.94
2022-09-10T16:05:35.440Z,21.17
2022-09-10T16:08:05.395Z,21.74
2022-09-10T16:10:39.813Z,22.23
2022-09-10T16:13:08.277Z,22.41
2022-09-10T16:15:38.911Z,22.75
2022-09-10T16:18:07.792Z,22.62
2022-09-10T16:20:36.690Z,22.59
2022-09-10T16:23:06.874Z,21.03
2022-09-10T16:25:35.152Z,21.27
2022-09-10T16:28:03.944Z,21.84
2022-09-10T16:30:32.386Z,21.90
2022-09-10T16:33:01.317Z,20.94
2022-09-10T16:35:29.885Z,20.33
2022-09-10T16:38:00.584Z,19.67
2022-09-10T16:40:31.430Z,18.88
2022-09-10T16:42:59.710Z,18.44
2022-09-10T16:45:31.433Z,18.42
2022-09-10T16:48:04.111Z,18.37
2022-09-10T16:50:34.490Z,18.01
2022-09-10T16:53:10.125Z,17.64
2022-09-10T16:55:42.613Z,17.57
2022-09-10T16:58:11.812Z,17.29
2022-09-10T17:00:43.239Z,16.98
2022-09-10T17:05:17.812Z,16.58
2022-09-10T17:07:46.919Z,16.30
2022-09-10T17:10:15.907Z,16.22
2022-09-10T17:12:44.752Z,16.23
2022-09-10T17:15:13.125Z,16.02
2022-09-10T17:17:43.310Z,15.95
2022-09-10T17:20:12.883Z,16.00
2022-09-10T17:22:42.800Z,15.98
2022-09-10T17:25:11.815Z,15.99
2022-09-10T17:27:40.980Z,15.88
2022-09-10T17:30:12.230Z,15.89
2022-09-10T17:32:41.302Z,15.89
2022-09-10T17:35:12.656Z,15.76
2022-09-10T17:37:42.571Z,15.68
2022-09-10T17:40:14.353Z,15.62
2022-09-10T17:42:49.280Z,15.59
2022-09-10T17:45:19.645Z,15.38
2022-09-10T17:47:49.002Z,15.43
2022-09-10T17:50:18.769Z,15.42
2022-09-10T17:52:49.486Z,15.42
2022-09-10T17:55:18.947Z,15.40
2022-09-10T17:57:47.383Z,15.42
2022-09-10T18:00:17.856Z,15.45
2022-09-10T18:02:46.154Z,15.45
2022-09-10T18:05:15.014Z,15.37
2022-09-10T18:07:47.670Z,15.26
2022-09-10T18:10:19.271Z,15.24
2022-09-10T18:12:48.825Z,15.20
2022-09-10T18:15:20.271Z,15.17
2022-09-10T18:17:49.147Z,14.95
2022-09-10T18:20:18.441Z,14.93
2022-09-10T18:22:47.872Z,14.92
2022-09-10T18:25:20.148Z,14.93
2022-09-10T18:27:51.772Z,14.89
2022-09-10T18:30:20.710Z,14.80
2022-09-10T18:32:52.162Z,14.72
2022-09-10T18:35:21.475Z,14.67
2022-09-10T18:37:53.541Z,14.69
2022-09-10T18:40:23.831Z,14.71
2022-09-10T18:42:53.370Z,14.66
2022-09-10T18:45:22.560Z,14.65
2022-09-10T18:47:53.583Z,14.69
2022-09-10T18:50:22.661Z,14.68
2022-09-10T18:52:53.551Z,14.69
2022-09-10T18:55:27.109Z,14.69
2022-09-10T18:57:56.826Z,14.65
2022-09-10T19:00:25.428Z,14.60
2022-09-10T19:05:21.007Z,14.47
2022-09-10T19:07:49.957Z,14.45
2022-09-10T19:10:18.596Z,14.46
2022-09-10T19:12:47.541Z,14.45
2022-09-10T19:15:16.329Z,14.47
2022-09-10T19:17:45.274Z,14.47
2022-09-10T19:20:14.687Z,14.53
2022-09-10T19:22:45.771Z,14.54
2022-09-10T19:25:14.870Z,14.54
2022-09-10T19:27:45.353Z,14.54
2022-09-10T19:30:14.623Z,14.55
2022-09-10T19:32:44.230Z,14.57
2022-09-10T19:35:15.785Z,14.56
2022-09-10T19:37:49.894Z,14.54
2022-09-10T19:40:18.551Z,14.53
2022-09-10T19:42:46.969Z,14.51
2022-09-10T19:45:16.735Z,14.55
2022-09-10T19:47:46.377Z,14.39
2022-09-10T19:50:15.462Z,14.34
2022-09-10T19:52:48.433Z,14.33
2022-09-10T19:55:19.598Z,14.32
2022-09-10T19:57:48.470Z,14.36
2022-09-10T20:00:43.128Z,14.40
2022-09-10T20:03:10.012Z,14.37
2022-09-10T20:05:42.945Z,14.33
2022-09-10T20:08:14.169Z,14.32
2022-09-10T20:10:52.091Z,14.32
2022-09-10T20:13:20.657Z,14.33
2022-09-10T20:15:49.602Z,14.32
2022-09-10T20:18:19.357Z,14.32
2022-09-10T20:20:48.558Z,14.33
2022-09-10T20:23:19.549Z,14.34
2022-09-10T20:25:48.566Z,14.36
2022-09-10T20:28:19.462Z,14.37
2022-09-10T20:30:48.616Z,14.39
2022-09-10T20:33:22.910Z,14.40
2022-09-10T20:35:51.554Z,14.42
2022-09-10T20:38:21.935Z,14.40
2022-09-10T20:40:50.833Z,14.44
2022-09-10T20:43:20.148Z,14.44
2022-09-10T20:45:49.661Z,14.45
2022-09-10T20:48:18.165Z,14.49
2022-09-10T20:50:53.513Z,14.51
2022-09-10T20:53:25.222Z,14.49
2022-09-10T20:55:54.350Z,14.48
2022-09-10T20:58:24.355Z,14.54
2022-09-10T21:00:53.093Z,14.56
2022-09-10T21:05:20.805Z,14.64
2022-09-10T21:07:51.174Z,14.69
2022-09-10T21:10:19.816Z,14.73
2022-09-10T21:12:50.074Z,14.77
2022-09-10T21:15:19.171Z,14.82
2022-09-10T21:17:49.297Z,14.86
2022-09-10T21:20:21.142Z,14.88
2022-09-10T21:22:50.709Z,14.88
2022-09-10T21:25:19.673Z,14.78
2022-09-10T21:27:48.361Z,14.63
2022-09-10T21:30:17.321Z,14.42
2022-09-10T21:32:46.454Z,14.22
2022-09-10T21:35:16.511Z,14.06
2022-09-10T21:37:47.001Z,13.95
2022-09-10T21:40:15.543Z,13.90
2022-09-10T21:42:51.465Z,13.87
2022-09-10T21:45:23.290Z,13.84
2022-09-10T21:47:54.395Z,13.85
2022-09-10T21:50:24.232Z,13.94
2022-09-10T21:52:54.683Z,14.07
2022-09-10T21:55:23.428Z,14.11
2022-09-10T21:57:55.059Z,14.12
2022-09-10T22:00:25.612Z,14.11
2022-09-10T22:02:55.415Z,14.08
2022-09-10T22:05:30.918Z,14.14
2022-09-10T22:08:03.081Z,14.19
2022-09-10T22:10:32.581Z,14.24
2022-09-10T22:13:01.062Z,14.27
2022-09-10T22:15:29.450Z,14.27
2022-09-10T22:17:58.003Z,14.21
2022-09-10T22:20:26.986Z,14.13
2022-09-10T22:22:55.310Z,14.04
2022-09-10T22:25:28.437Z,13.94
2022-09-10T22:27:58.374Z,13.83
2022-09-10T22:30:28.290Z,13.61
2022-09-10T22:32:57.534Z,13.51
2022-09-10T22:35:31.453Z,13.43
2022-09-10T22:38:00.395Z,13.29
2022-09-10T22:40:32.695Z,13.14
2022-09-10T22:43:04.958Z,13.16
2022-09-10T22:45:34.810Z,13.04
2022-09-10T22:48:06.497Z,12.91
2022-09-10T22:50:36.865Z,12.77
2022-09-10T22:53:08.403Z,12.67
2022-09-10T22:55:46.878Z,12.62
2022-09-10T22:58:19.057Z,12.60
2022-09-10T23:00:47.309Z,12.56
2022-09-10T23:05:18.586Z,12.54
2022-09-10T23:07:46.943Z,12.51
2022-09-10T23:10:18.447Z,12.48
2022-09-10T23:12:47.409Z,12.42
2022-09-10T23:15:19.474Z,12.43
2022-09-10T23:17:49.801Z,12.46
2022-09-10T23:20:20.554Z,12.48
2022-09-10T23:22:54.207Z,12.46
2022-09-10T23:25:23.661Z,12.37
2022-09-10T23:27:56.503Z,12.29
2022-09-10T23:30:25.005Z,12.22
2022-09-10T23:32:54.257Z,12.17
2022-09-10T23:35:24.679Z,12.15
2022-09-10T23:37:54.281Z,12.12
2022-09-10T23:40:28.906Z,12.14
2022-09-10T23:43:02.358Z,12.10
2022-09-10T23:45:31.023Z,12.03
2022-09-10T23:47:59.331Z,11.99
2022-09-10T23:50:29.935Z,11.92
2022-09-10T23:52:58.303Z,11.84
2022-09-10T23:55:26.927Z,11.78
2022-09-10T23:57:56.739Z,11.70
